Time;durP1;ratioP1;P1;durP2;ratioP2;P2;SDS_P1;SDS_P2;PMS_P1;PMS_P2;Temp;Humidity;BMP_temperature;BMP_pressure;BME280_temperature;BME280_humidity;BME280_pressure;Samples;Min_cycle;Max_cycle;Signal;HPM_P1;HPM_P2
2022/01/01 00:01:34;;;;;;;39.28;17.95;;;;;;;-0.22;74.17;98455.28;6042904;23;20461;-78
2022/01/01 00:04:10;;;;;;;31.48;14.98;;;;;;;-0.09;73.39;98474.22;6044352;23;20023;-79
2022/01/01 00:06:36;;;;;;;33.45;15.18;;;;;;;-0.42;73.45;98419.25;6020375;23;20346;-77
2022/01/01 00:09:03;;;;;;;29.80;15.43;;;;;;;-0.10;73.96;98461.41;6042881;23;20096;-80
2022/01/01 00:11:29;;;;;;;28.35;15.30;;;;;;;-0.09;73.97;98452.91;6040314;23;20025;-79
2022/01/01 00:13:55;;;;;;;30.23;14.60;;;;;;;-0.06;73.75;98450.38;5992540;23;20027;-81
2022/01/01 00:16:21;;;;;;;28.60;14.63;;;;;;;-0.02;73.71;98453.00;6022678;23;20015;-78
2022/01/01 00:18:47;;;;;;;29.20;14.38;;;;;;;-0.02;73.43;98460.66;6021798;23;20023;-76
2022/01/01 00:21:13;;;;;;;31.52;15.32;;;;;;;-0.05;73.57;98447.00;6020307;23;20422;-78
2022/01/01 00:23:39;;;;;;;32.50;14.55;;;;;;;-0.22;73.54;98427.16;6040564;23;20030;-79
2022/01/01 00:26:05;;;;;;;30.00;14.82;;;;;;;-0.10;74.24;98444.34;5991689;23;20019;-79
2022/01/01 00:28:31;;;;;;;30.52;14.48;;;;;;;-0.19;73.90;98429.75;6038489;23;20019;-82
2022/01/01 00:30:57;;;;;;;30.25;14.68;;;;;;;-0.36;73.83;98406.56;6044483;23;20016;-77
2022/01/01 00:33:25;;;;;;;29.45;14.85;;;;;;;-0.18;73.71;98428.91;6029458;23;20034;-78
2022/01/01 00:35:50;;;;;;;32.40;15.05;;;;;;;-0.13;73.95;98441.78;6050457;23;20023;-82
2022/01/01 00:38:16;;;;;;;27.58;14.30;;;;;;;-0.21;74.11;98428.03;6038717;23;20042;-80
2022/01/01 00:40:42;;;;;;;31.08;14.38;;;;;;;-0.41;73.76;98402.19;6018152;23;20031;-78
2022/01/01 00:43:07;;;;;;;29.92;14.65;;;;;;;-0.22;73.43;98436.53;6040721;23;20023;-80
2022/01/01 00:45:33;;;;;;;39.35;18.15;;;;;;;-0.22;74.18;98426.31;6038485;23;20023;-81
2022/01/01 00:47:59;;;;;;;28.70;14.98;;;;;;;-0.24;73.75;98423.75;5993978;23;20078;-78
2022/01/01 00:50:25;;;;;;;30.17;13.73;;;;;;;-0.28;74.50;98422.00;6041615;23;20454;-78
2022/01/01 00:52:52;;;;;;;29.88;13.02;;;;;;;-0.34;74.10;98401.44;6041122;23;20156;-79
2022/01/01 00:55:19;;;;;;;27.20;12.98;;;;;;;-0.22;73.83;98422.03;6040737;23;20026;-80
2022/01/01 00:57:47;;;;;;;29.15;12.70;;;;;;;-0.47;74.15;98372.31;6016341;23;20426;-81
2022/01/01 01:00:13;;;;;;;33.58;13.70;;;;;;;-0.31;73.83;98396.38;6016373;23;20356;-80
2022/01/01 01:02:39;;;;;;;24.13;12.18;;;;;;;-0.23;74.38;98420.38;6021956;23;20050;-79
2022/01/01 01:05:05;;;;;;;27.13;13.27;;;;;;;-0.27;74.34;98403.25;6058965;23;20019;-78
2022/01/01 01:07:30;;;;;;;24.25;11.80;;;;;;;-0.35;74.82;98394.63;6041738;23;20022;-82
2022/01/01 01:09:56;;;;;;;30.88;12.43;;;;;;;-0.25;74.19;98395.59;6042730;23;20103;-83
2022/01/01 01:12:26;;;;;;;23.10;11.63;;;;;;;-0.23;74.57;98397.34;6041597;23;20026;-80
2022/01/01 01:14:52;;;;;;;25.35;12.35;;;;;;;-0.20;74.38;98396.50;6042153;23;20151;-79
2022/01/01 01:17:19;;;;;;;21.45;11.73;;;;;;;-0.36;74.58;98369.91;5992821;23;20019;-82
2022/01/01 01:19:44;;;;;;;22.15;11.40;;;;;;;-0.14;74.61;98406.81;6042087;23;20019;-80
2022/01/01 01:22:11;;;;;;;25.60;12.23;;;;;;;-0.12;74.77;98392.38;6015716;23;20079;-78
2022/01/01 01:24:39;;;;;;;24.13;11.68;;;;;;;-0.36;74.22;98357.13;6049375;23;20023;-79
2022/01/01 01:27:06;;;;;;;22.50;11.20;;;;;;;-0.16;74.45;98388.03;6041706;23;20042;-79
2022/01/01 01:29:36;;;;;;;20.83;10.10;;;;;;;-0.30;74.68;98357.19;6039551;23;20027;-79
2022/01/01 01:32:04;;;;;;;22.90;11.57;;;;;;;-0.19;75.35;98375.22;6039959;23;20023;-81
2022/01/01 01:34:31;;;;;;;23.40;12.07;;;;;;;-0.10;74.81;98392.38;6041497;23;20180;-81
2022/01/01 01:36:57;;;;;;;21.90;11.13;;;;;;;-0.07;74.50;98389.84;6016917;23;20043;-78
2022/01/01 01:39:24;;;;;;;22.88;11.50;;;;;;;-0.09;75.08;98386.41;6045361;23;20098;-78
2022/01/01 01:41:52;;;;;;;22.80;11.07;;;;;;;-0.08;75.13;98385.56;6042594;23;20083;-81
2022/01/01 01:44:23;;;;;;;24.88;11.32;;;;;;;-0.23;74.73;98368.34;6039898;23;20057;-80
2022/01/01 01:46:50;;;;;;;21.40;11.00;;;;;;;-0.10;75.33;98380.41;5993601;23;20026;-77
2022/01/01 01:49:16;;;;;;;21.30;11.05;;;;;;;-0.07;75.20;98367.66;6016264;23;20087;-80
2022/01/01 01:51:42;;;;;;;20.13;10.30;;;;;;;-0.07;75.55;98370.22;6041495;23;20071;-81
2022/01/01 01:54:10;;;;;;;21.58;10.40;;;;;;;-0.06;75.11;98374.50;6015953;23;20074;-77
2022/01/01 01:56:37;;;;;;;22.15;10.82;;;;;;;-0.10;75.18;98369.34;6039500;23;20089;-77
2022/01/01 01:59:03;;;;;;;20.52;10.23;;;;;;;-0.06;75.15;98377.06;6039619;23;20023;-80
2022/01/01 02:01:29;;;;;;;18.83;10.00;;;;;;;-0.05;75.30;98373.66;6042180;23;20046;-80
2022/01/01 02:03:56;;;;;;;21.08;10.52;;;;;;;-0.23;75.43;98335.97;6042448;23;20019;-79
2022/01/01 02:06:23;;;;;;;20.35;10.27;;;;;;;0.02;75.41;98374.59;6041752;23;20461;-80
2022/01/01 02:08:51;;;;;;;22.20;10.52;;;;;;;-0.09;75.91;98361.69;5993158;23;20078;-78
2022/01/01 02:11:19;;;;;;;22.55;10.57;;;;;;;-0.10;74.99;98348.88;6048302;23;20469;-76
2022/01/01 02:14:36;;;;;;;21.35;9.63;;;;;;;-0.10;75.18;98354.84;6057773;23;20006;-79
2022/01/01 02:17:17;;;;;;;21.45;9.95;;;;;;;-0.11;75.44;98348.00;6018909;23;20110;-79
2022/01/01 02:19:28;;;;;;;20.52;9.90;;;;;;;-0.02;75.63;98368.59;6025190;23;20060;-78
2022/01/01 02:21:57;;;;;;;17.98;9.48;;;;;;;0.10;76.00;98382.38;6015156;23;20082;-79
2022/01/01 02:24:24;;;;;;;22.92;10.25;;;;;;;0.02;75.72;98364.34;6039349;23;20019;-79
2022/01/01 02:26:50;;;;;;;21.42;10.23;;;;;;;-0.07;75.36;98336.13;6039557;23;20050;-79
2022/01/01 02:29:15;;;;;;;18.35;9.57;;;;;;;0.10;75.44;98364.47;6041300;23;20019;-80
2022/01/01 02:31:41;;;;;;;19.92;10.38;;;;;;;0.08;75.67;98350.78;6015216;23;20019;-80
2022/01/01 02:34:09;;;;;;;18.23;9.50;;;;;;;0.13;75.64;98354.22;6040656;23;20023;-79
2022/01/01 02:36:42;;;;;;;18.05;9.85;;;;;;;0.22;75.95;98372.25;6015537;23;20521;-80
2022/01/01 02:39:18;;;;;;;17.92;9.38;;;;;;;0.14;75.30;98363.63;6040017;23;20502;-77
2022/01/01 02:41:45;;;;;;;18.85;9.82;;;;;;;0.14;75.90;98366.19;6038534;23;20019;-78
2022/01/01 02:44:11;;;;;;;22.30;10.05;;;;;;;0.14;75.50;98367.06;6015853;23;20327;-78
2022/01/01 02:46:37;;;;;;;19.17;9.10;;;;;;;0.06;75.43;98355.88;6039390;23;20023;-79
2022/01/01 02:49:05;;;;;;;18.20;9.25;;;;;;;0.17;75.44;98368.78;6042159;23;20015;-78
2022/01/01 02:51:31;;;;;;;18.20;9.57;;;;;;;0.19;75.51;98377.31;6041038;23;20019;-78
2022/01/01 02:53:57;;;;;;;17.48;8.85;;;;;;;0.18;76.23;98369.66;6019389;23;20031;-79
2022/01/01 02:56:24;;;;;;;17.60;9.27;;;;;;;-0.25;75.43;98303.56;6046428;23;20074;-78
2022/01/01 02:58:51;;;;;;;15.95;8.65;;;;;;;-0.05;76.03;98331.91;6045239;23;20023;-79
2022/01/01 03:01:17;;;;;;;16.00;8.82;;;;;;;0.19;75.80;98372.22;6045163;23;20019;-78
2022/01/01 03:03:43;;;;;;;17.00;8.68;;;;;;;0.21;75.98;98354.34;6045276;23;20029;-78
2022/01/01 03:06:10;;;;;;;15.65;8.68;;;;;;;0.32;75.71;98362.94;6041509;23;20023;-78
2022/01/01 03:08:37;;;;;;;15.10;8.57;;;;;;;0.35;76.23;98372.34;6039157;23;20147;-80
2022/01/01 03:11:03;;;;;;;18.30;8.65;;;;;;;0.34;76.10;98362.94;6040459;23;20425;-78
2022/01/01 03:13:32;;;;;;;17.25;8.75;;;;;;;0.18;75.86;98334.66;6038921;23;20030;-81
2022/01/01 03:15:57;;;;;;;16.55;8.35;;;;;;;0.31;75.62;98361.22;6038816;23;20046;-76
2022/01/01 03:18:23;;;;;;;21.42;10.13;;;;;;;0.20;75.99;98327.88;6015250;23;20015;-79
2022/01/01 03:20:49;;;;;;;20.00;9.05;;;;;;;0.38;76.20;98355.34;6019159;23;20024;-78
2022/01/01 03:23:17;;;;;;;23.52;10.23;;;;;;;0.34;76.49;98352.72;6055882;23;20138;-78
2022/01/01 03:25:44;;;;;;;20.55;9.35;;;;;;;0.39;75.68;98353.63;6049897;23;20024;-77
2022/01/01 03:28:10;;;;;;;18.52;8.48;;;;;;;0.38;76.03;98346.78;6041164;23;20059;-79
2022/01/01 03:30:36;;;;;;;21.38;10.00;;;;;;;0.34;76.21;98345.03;6040267;23;20026;-79
2022/01/01 03:33:02;;;;;;;23.80;9.40;;;;;;;0.39;75.72;98346.81;6040382;23;20023;-79
2022/01/01 03:35:27;;;;;;;19.30;9.52;;;;;;;0.38;75.98;98331.44;6039055;23;20484;-80
2022/01/01 03:37:53;;;;;;;21.25;9.80;;;;;;;0.41;75.41;98332.34;6014211;23;20023;-78
2022/01/01 03:40:19;;;;;;;23.10;11.23;;;;;;;0.44;75.78;98331.50;6038296;23;20022;-81
2022/01/01 03:42:44;;;;;;;24.73;10.93;;;;;;;0.49;76.17;98342.63;5994283;23;20015;-78
2022/01/01 03:45:10;;;;;;;22.95;10.25;;;;;;;0.34;76.18;98310.09;6042021;23;20026;-77
2022/01/01 03:47:36;;;;;;;19.65;9.60;;;;;;;0.54;76.03;98342.66;6016391;23;20044;-79
2022/01/01 03:50:03;;;;;;;23.48;9.95;;;;;;;0.49;76.50;98332.41;6040233;23;20066;-77
2022/01/01 03:52:29;;;;;;;20.75;10.50;;;;;;;0.60;76.20;98343.56;6015171;23;20064;-80
2022/01/01 03:54:56;;;;;;;22.90;10.52;;;;;;;0.60;75.74;98341.00;6041717;23;20103;-80
2022/01/01 03:57:21;;;;;;;23.00;10.98;;;;;;;0.42;75.55;98305.03;6046222;23;20019;-76
2022/01/01 03:59:48;;;;;;;24.45;10.60;;;;;;;0.65;75.89;98343.63;6037350;23;20034;-78
2022/01/01 04:02:14;;;;;;;24.20;10.57;;;;;;;0.67;76.05;98343.63;6038004;23;20019;-82
2022/01/01 04:04:41;;;;;;;19.00;10.15;;;;;;;0.70;75.83;98346.22;6061919;23;20038;-80
2022/01/01 04:07:08;;;;;;;25.67;10.25;;;;;;;0.59;75.49;98326.50;6044766;23;20023;-77
2022/01/01 04:09:35;;;;;;;22.67;10.52;;;;;;;0.64;75.81;98333.34;6019350;23;20019;-80
2022/01/01 04:12:01;;;;;;;25.73;11.55;;;;;;;0.67;75.81;98320.56;6044081;23;20016;-77
2022/01/01 04:14:27;;;;;;;27.20;11.50;;;;;;;0.77;76.01;98337.75;6044676;23;20023;-79
2022/01/01 04:16:54;;;;;;;23.25;10.50;;;;;;;0.53;75.58;98287.19;6017494;23;20015;-81
2022/01/01 04:19:26;;;;;;;20.63;10.00;;;;;;;0.81;75.86;98331.75;6015549;23;20023;-78
2022/01/01 04:21:52;;;;;;;21.95;10.30;;;;;;;0.91;76.07;98342.94;6040437;23;20035;-77
2022/01/01 04:24:18;;;;;;;20.92;10.00;;;;;;;0.97;76.07;98344.69;6042513;23;20019;-79
2022/01/01 04:26:43;;;;;;;23.17;9.68;;;;;;;0.85;75.57;98314.72;6041178;23;20019;-78
2022/01/01 04:29:10;;;;;;;20.75;10.38;;;;;;;0.83;75.18;98322.38;6041254;23;20139;-79
2022/01/01 04:31:36;;;;;;;18.85;9.18;;;;;;;1.05;75.54;98348.16;6031286;23;20003;-77
2022/01/01 04:34:02;;;;;;;17.02;8.40;;;;;;;1.08;75.79;98340.47;6005664;23;20034;-79
2022/01/01 04:36:27;;;;;;;15.95;7.95;;;;;;;1.12;75.28;98351.59;6040551;23;20682;-80
2022/01/01 04:38:53;;;;;;;17.77;8.48;;;;;;;0.96;75.93;98307.13;6042344;23;20023;-79
2022/01/01 04:41:19;;;;;;;15.02;8.15;;;;;;;1.11;75.71;98327.69;6016501;23;20353;-78
2022/01/01 04:43:46;;;;;;;13.50;7.32;;;;;;;1.23;75.40;98338.84;6040779;23;20033;-78
2022/01/01 04:46:12;;;;;;;13.48;7.35;;;;;;;1.25;75.00;98339.72;6041481;23;20015;-81
2022/01/01 04:48:38;;;;;;;15.98;7.10;;;;;;;1.07;75.24;98307.19;6043235;23;20019;-78
2022/01/01 04:51:08;;;;;;;13.27;6.60;;;;;;;1.16;76.11;98313.22;6042413;23;20048;-83
2022/01/01 04:53:34;;;;;;;16.00;7.85;;;;;;;1.37;75.62;98331.22;6039974;23;20109;-78
2022/01/01 04:56:04;;;;;;;12.80;7.35;;;;;;;1.50;75.88;98349.25;6041012;23;20512;-79
2022/01/01 04:58:30;;;;;;;14.98;7.43;;;;;;;1.40;75.30;98333.81;6041557;23;20093;-78
2022/01/01 05:00:56;;;;;;;19.75;7.75;;;;;;;1.37;75.35;98332.09;6017206;23;20419;-79
2022/01/01 05:03:21;;;;;;;14.57;7.68;;;;;;;1.42;75.09;98335.56;6016281;23;20140;-81
2022/01/01 05:05:47;;;;;;;13.45;6.60;;;;;;;1.54;75.41;98355.25;6045540;23;20015;-78
2022/01/01 05:08:13;;;;;;;11.23;6.32;;;;;;;1.49;75.07;98352.66;6043980;23;20069;-78
2022/01/01 05:10:39;;;;;;;13.43;6.68;;;;;;;1.32;74.86;98339.78;6042172;23;20019;-80
2022/01/01 05:13:05;;;;;;;13.68;6.78;;;;;;;1.41;74.96;98338.97;6018438;23;20019;-82
2022/01/01 05:15:31;;;;;;;16.92;7.28;;;;;;;1.41;75.05;98331.28;6043333;23;20090;-83
2022/01/01 05:17:57;;;;;;;14.05;7.18;;;;;;;1.53;74.79;98362.94;6040788;23;20019;-82
2022/01/01 05:20:22;;;;;;;14.07;7.00;;;;;;;1.31;74.94;98330.38;6042510;23;20015;-82
2022/01/01 05:22:48;;;;;;;15.32;7.38;;;;;;;1.30;74.55;98330.34;6042588;23;20019;-79
2022/01/01 05:25:14;;;;;;;10.10;6.50;;;;;;;1.30;74.83;98350.84;6016696;23;20365;-84
2022/01/01 05:27:40;;;;;;;13.52;7.30;;;;;;;1.16;74.62;98322.59;6041802;23;20019;-79
2022/01/01 05:30:07;;;;;;;13.20;6.65;;;;;;;1.26;74.46;98351.69;6040590;23;20370;-81
2022/01/01 05:32:33;;;;;;;12.93;7.07;;;;;;;1.09;74.48;98341.34;6042255;23;20023;-82
2022/01/01 05:34:59;;;;;;;15.77;8.50;;;;;;;1.33;74.73;98372.22;6040290;23;20482;-80
2022/01/01 05:37:25;;;;;;;16.42;7.20;;;;;;;1.19;74.43;98361.91;5993515;23;20023;-80
2022/01/01 05:39:50;;;;;;;17.45;7.72;;;;;;;1.30;74.96;98371.34;6024541;23;20043;-77
2022/01/01 05:42:16;;;;;;;11.60;6.47;;;;;;;1.39;74.61;98384.25;6060712;23;20018;-81
2022/01/01 05:44:42;;;;;;;15.45;7.40;;;;;;;1.48;75.03;98388.56;6017527;23;20425;-79
2022/01/01 05:47:08;;;;;;;16.23;8.00;;;;;;;1.51;74.92;98383.44;6017034;23;20143;-80
2022/01/01 05:49:34;;;;;;;14.95;7.00;;;;;;;1.55;74.47;98372.34;6016930;23;20031;-79
2022/01/01 05:52:00;;;;;;;15.02;6.72;;;;;;;1.55;74.11;98381.75;6041343;23;20019;-81
2022/01/01 05:54:27;;;;;;;18.20;8.02;;;;;;;1.12;74.56;98303.78;6041247;23;20352;-81
2022/01/01 05:56:54;;;;;;;17.05;7.60;;;;;;;1.29;74.49;98333.75;6016149;23;20015;-82
2022/01/01 05:59:20;;;;;;;13.88;6.80;;;;;;;1.49;74.53;98349.25;6039926;23;20123;-79
2022/01/01 06:01:48;;;;;;;15.55;7.55;;;;;;;1.73;74.60;98391.25;6041502;23;20062;-82
2022/01/01 06:04:17;;;;;;;14.15;7.10;;;;;;;1.72;74.39;98380.09;5993687;23;20022;-79
2022/01/01 06:06:43;;;;;;;15.05;7.63;;;;;;;1.61;74.20;98359.53;6042607;23;20025;-78
2022/01/01 06:09:09;;;;;;;12.68;6.55;;;;;;;1.61;74.64;98356.97;6017748;23;20039;-80
2022/01/01 06:11:38;;;;;;;11.25;6.80;;;;;;;1.62;74.07;98355.28;6041114;23;20015;-79
2022/01/01 06:14:04;;;;;;;13.35;7.30;;;;;;;1.83;74.43;98380.16;6016079;23;20127;-76
2022/01/01 06:16:32;;;;;;;15.05;7.30;;;;;;;1.84;74.40;98379.28;6017909;23;20055;-81
2022/01/01 06:18:58;;;;;;;13.55;6.78;;;;;;;1.93;74.21;98378.47;6041090;23;20023;-80
2022/01/01 06:21:23;;;;;;;12.65;6.75;;;;;;;1.88;74.06;98365.63;6042486;23;20167;-80
2022/01/01 06:23:49;;;;;;;14.07;6.97;;;;;;;1.74;74.01;98337.38;6016568;23;20023;-82
2022/01/01 06:26:15;;;;;;;13.70;7.00;;;;;;;1.98;73.49;98381.91;6040315;23;20030;-78
2022/01/01 06:28:42;;;;;;;12.98;7.03;;;;;;;1.88;73.85;98368.19;5992448;23;20114;-82
2022/01/01 06:31:07;;;;;;;13.77;6.30;;;;;;;1.83;74.17;98361.34;6039809;23;20015;-77
2022/01/01 06:33:33;;;;;;;14.13;6.30;;;;;;;1.93;73.74;98376.78;6015875;23;20015;-79
2022/01/01 06:35:59;;;;;;;10.95;6.07;;;;;;;1.76;73.86;98356.19;6016921;23;20473;-77
2022/01/01 06:38:25;;;;;;;11.80;6.45;;;;;;;1.86;74.23;98362.19;6040753;23;20023;-81
2022/01/01 06:40:51;;;;;;;13.23;6.65;;;;;;;1.86;73.97;98351.94;6040068;23;20054;-79
2022/01/01 06:43:18;;;;;;;14.10;6.50;;;;;;;2.00;73.93;98364.81;6015441;23;20462;-81
2022/01/01 06:45:44;;;;;;;14.13;6.47;;;;;;;2.11;73.86;98380.25;6041160;23;20023;-80
2022/01/01 06:48:13;;;;;;;11.15;5.95;;;;;;;2.07;73.47;98386.22;6042606;23;20030;-77
2022/01/01 06:50:39;;;;;;;12.02;6.25;;;;;;;1.84;73.51;98347.66;6057188;23;20014;-78
2022/01/01 06:53:07;;;;;;;12.68;6.07;;;;;;;1.90;73.43;98357.94;5997824;23;20015;-80
2022/01/01 06:55:33;;;;;;;13.13;6.70;;;;;;;2.06;73.61;98382.81;6015031;23;20015;-80
2022/01/01 06:57:59;;;;;;;10.80;6.20;;;;;;;1.99;73.74;98372.53;6015312;23;20027;-81
2022/01/01 07:00:25;;;;;;;11.15;5.65;;;;;;;2.12;73.61;98389.66;6015764;23;20480;-79
2022/01/01 07:02:53;;;;;;;11.32;5.95;;;;;;;2.09;73.21;98389.63;6039903;23;20019;-78
2022/01/01 07:05:19;;;;;;;11.43;5.93;;;;;;;1.92;73.12;98357.09;6017101;23;20027;-80
2022/01/01 07:07:45;;;;;;;11.10;6.38;;;;;;;2.01;72.82;98381.06;6041848;23;20019;-79
2022/01/01 07:10:12;;;;;;;12.43;6.22;;;;;;;1.91;73.14;98367.34;6015550;23;20019;-80
2022/01/01 07:12:41;;;;;;;10.98;6.13;;;;;;;1.98;73.08;98381.91;6042326;23;20015;-79
2022/01/01 07:15:08;;;;;;;11.60;6.03;;;;;;;2.02;73.27;98386.22;6046390;23;20051;-78
2022/01/01 07:17:34;;;;;;;11.27;6.05;;;;;;;2.01;73.19;98376.78;6017623;23;20022;-80
2022/01/01 07:20:00;;;;;;;10.32;6.10;;;;;;;1.97;73.70;98364.81;6016494;23;20019;-78
2022/01/01 07:22:26;;;;;;;11.23;6.18;;;;;;;2.01;73.56;98358.84;5996707;23;20034;-79
2022/01/01 07:24:57;;;;;;;10.82;5.82;;;;;;;2.27;73.31;98388.84;6020267;23;20043;-81
2022/01/01 07:27:23;;;;;;;12.63;6.28;;;;;;;2.18;73.10;98375.97;5998773;23;20322;-79
2022/01/01 07:29:49;;;;;;;11.38;6.65;;;;;;;2.23;72.87;98382.81;6049446;23;20027;-78
2022/01/01 07:32:15;;;;;;;12.35;6.10;;;;;;;2.21;72.67;98388.81;6017411;23;20043;-77
2022/01/01 07:34:41;;;;;;;10.98;5.82;;;;;;;2.16;73.38;98375.09;6016765;23;20030;-78
2022/01/01 07:37:06;;;;;;;13.52;6.07;;;;;;;2.17;73.08;98366.56;6041808;23;20027;-80
2022/01/01 07:39:33;;;;;;;13.07;6.50;;;;;;;2.08;72.58;98358.00;6041916;23;20023;-80
2022/01/01 07:41:59;;;;;;;10.00;5.78;;;;;;;2.18;72.41;98363.13;6041010;23;20019;-80
2022/01/01 07:44:29;;;;;;;9.15;5.90;;;;;;;2.38;72.65;98401.69;6039097;23;20327;-78
2022/01/01 07:46:55;;;;;;;13.60;6.55;;;;;;;1.83;72.44;98302.34;6041029;23;20018;-80
2022/01/01 07:49:21;;;;;;;11.13;6.55;;;;;;;2.32;72.93;98364.00;5993126;23;20019;-80
2022/01/01 07:51:47;;;;;;;10.00;6.22;;;;;;;2.57;72.71;98402.56;5994342;23;20043;-78
2022/01/01 07:54:13;;;;;;;12.80;6.55;;;;;;;2.54;72.38;98379.44;6017393;23;20023;-80
2022/01/01 07:56:39;;;;;;;14.18;6.40;;;;;;;2.61;72.34;98393.16;6019584;23;20038;-78
2022/01/01 07:59:05;;;;;;;14.05;6.50;;;;;;;2.43;72.24;98361.44;6030087;23;20027;-78
2022/01/01 08:01:30;;;;;;;13.77;6.70;;;;;;;2.61;72.25;98393.16;6057254;23;20031;-78
2022/01/01 08:04:01;;;;;;;13.77;7.35;;;;;;;2.60;71.96;98387.16;6015823;23;20019;-77
2022/01/01 08:06:30;;;;;;;13.27;6.78;;;;;;;2.74;72.59;98394.88;6039375;23;20458;-78
2022/01/01 08:08:56;;;;;;;12.70;7.22;;;;;;;2.61;72.16;98375.19;6038677;23;20102;-79
2022/01/01 08:11:31;;;;;;;12.90;6.90;;;;;;;2.81;72.19;98406.88;6039035;23;20015;-78
2022/01/01 08:13:57;;;;;;;13.32;7.03;;;;;;;2.84;72.13;98408.56;6039286;23;20023;-79
2022/01/01 08:16:23;;;;;;;13.75;6.13;;;;;;;2.66;71.82;98378.59;6039596;23;20147;-77
2022/01/01 08:18:48;;;;;;;13.02;6.57;;;;;;;2.34;71.57;98334.06;6014907;23;20022;-79
2022/01/01 08:21:14;;;;;;;17.55;6.75;;;;;;;2.83;71.72;98404.28;6044127;23;20063;-77
2022/01/01 08:23:40;;;;;;;15.88;6.85;;;;;;;2.75;71.62;98383.75;6017299;23;20186;-79
2022/01/01 08:26:06;;;;;;;13.35;7.05;;;;;;;2.92;71.39;98412.00;6040292;23;20034;-77
2022/01/01 08:28:32;;;;;;;12.55;6.50;;;;;;;2.90;71.19;98397.44;6050723;23;20019;-77
2022/01/01 08:30:57;;;;;;;12.02;6.30;;;;;;;2.94;71.47;98410.31;6050408;23;20066;-80
2022/01/01 08:33:23;;;;;;;10.88;6.10;;;;;;;2.74;71.06;98388.91;6043550;23;20019;-80
2022/01/01 08:35:49;;;;;;;14.43;6.88;;;;;;;2.85;71.64;98398.31;6041800;23;20050;-77
2022/01/01 08:38:16;;;;;;;16.45;7.40;;;;;;;3.02;71.36;98410.28;6039965;23;20311;-78
2022/01/01 08:40:42;;;;;;;11.25;6.32;;;;;;;2.79;71.07;98366.59;6016499;23;20030;-79
2022/01/01 08:43:07;;;;;;;14.20;7.28;;;;;;;2.86;70.95;98399.16;6039741;23;20023;-79
2022/01/01 08:45:37;;;;;;;11.85;6.95;;;;;;;2.94;70.38;98410.31;6041902;23;20059;-79
2022/01/01 08:48:03;;;;;;;14.38;6.90;;;;;;;2.91;71.12;98405.16;6040845;23;20027;-79
2022/01/01 08:50:31;;;;;;;13.60;6.35;;;;;;;2.80;71.41;98384.59;6040164;23;20350;-81
2022/01/01 08:52:57;;;;;;;13.82;6.30;;;;;;;2.96;70.73;98411.16;6040277;23;20023;-79
2022/01/01 08:55:24;;;;;;;14.57;6.32;;;;;;;2.88;70.22;98402.59;6038993;23;20433;-80
2022/01/01 08:57:53;;;;;;;12.73;6.00;;;;;;;2.84;70.07;98401.75;6040627;23;20019;-79
2022/01/01 09:00:21;;;;;;;12.23;6.88;;;;;;;2.79;70.68;98397.44;6038823;23;20480;-78
2022/01/01 09:02:47;;;;;;;10.77;6.35;;;;;;;2.90;70.69;98407.72;6040542;23;20025;-78
2022/01/01 09:05:13;;;;;;;13.30;6.25;;;;;;;2.84;70.51;98393.16;6015555;23;20446;-78
2022/01/01 09:07:39;;;;;;;13.00;6.45;;;;;;;2.92;70.32;98406.00;6056942;23;20004;-80
2022/01/01 09:10:10;;;;;;;11.27;6.43;;;;;;;2.94;70.41;98405.16;6056869;23;20039;-81
2022/01/01 09:12:36;;;;;;;11.93;6.40;;;;;;;2.94;70.44;98396.59;6016236;23;20533;-78
2022/01/01 09:15:02;;;;;;;9.80;5.90;;;;;;;2.80;70.20;98370.88;6039822;23;20022;-77
2022/01/01 09:17:29;;;;;;;11.50;6.50;;;;;;;2.91;69.99;98406.84;6040347;23;20528;-78
2022/01/01 09:19:55;;;;;;;12.82;5.63;;;;;;;2.84;70.07;98398.31;6017727;23;20019;-79
2022/01/01 09:22:21;;;;;;;10.00;5.93;;;;;;;2.77;70.06;98389.75;6043463;23;20102;-80
2022/01/01 09:24:47;;;;;;;9.27;5.55;;;;;;;2.82;70.16;98392.31;6046140;23;20019;-81
2022/01/01 09:27:13;;;;;;;9.82;5.85;;;;;;;2.90;70.08;98406.03;6016564;23;20051;-79
2022/01/01 09:29:39;;;;;;;10.05;5.88;;;;;;;2.88;69.85;98386.28;6016741;23;20452;-79
2022/01/01 09:32:06;;;;;;;15.07;5.72;;;;;;;2.94;69.93;98400.03;6042214;23;20030;-79
2022/01/01 09:34:31;;;;;;;10.65;6.18;;;;;;;2.79;70.05;98379.44;6020184;23;20104;-77
2022/01/01 09:36:57;;;;;;;9.50;5.88;;;;;;;2.67;70.01;98360.63;6041818;23;20023;-79
2022/01/01 09:39:24;;;;;;;11.18;6.63;;;;;;;2.80;69.46;98387.19;6042251;23;20440;-80
2022/01/01 09:41:50;;;;;;;9.77;5.78;;;;;;;2.45;69.31;98325.53;6040637;23;20031;-80
2022/01/01 09:44:17;;;;;;;9.48;6.10;;;;;;;2.81;69.48;98393.16;6044068;23;20041;-79
2022/01/01 09:46:46;;;;;;;12.05;6.30;;;;;;;2.85;69.70;98382.91;6044173;23;20019;-79
2022/01/01 09:49:19;;;;;;;10.90;5.85;;;;;;;2.80;69.62;98376.91;5999057;23;20023;-77
2022/01/01 09:51:46;;;;;;;10.30;6.03;;;;;;;2.63;69.39;98346.06;6022080;23;20099;-78
2022/01/01 09:54:12;;;;;;;9.57;5.45;;;;;;;2.90;69.20;98385.47;6044544;23;20098;-78
2022/01/01 09:56:38;;;;;;;10.10;5.45;;;;;;;2.90;69.22;98384.59;6044118;23;20023;-78
2022/01/01 09:59:04;;;;;;;10.27;5.40;;;;;;;2.87;69.32;98380.31;6044475;23;20315;-77
2022/01/01 10:01:30;;;;;;;8.73;5.63;;;;;;;2.56;68.81;98344.34;6021655;23;20026;-78
2022/01/01 10:03:58;;;;;;;8.15;4.88;;;;;;;2.87;68.82;98388.03;6023543;23;20019;-79
2022/01/01 10:06:29;;;;;;;9.38;5.75;;;;;;;2.77;68.48;98368.31;6029084;23;20034;-80
2022/01/01 10:09:02;;;;;;;9.35;5.55;;;;;;;2.29;68.59;98279.31;6054189;23;20074;-80
2022/01/01 10:11:35;;;;;;;11.32;5.50;;;;;;;2.78;68.71;98364.88;6032469;23;20019;-78
2022/01/01 10:14:08;;;;;;;8.73;5.50;;;;;;;2.93;68.66;98387.16;6058812;23;20087;-79
2022/01/01 10:16:44;;;;;;;8.93;5.57;;;;;;;2.94;68.33;98384.59;6036531;23;20007;-78
2022/01/01 10:19:10;;;;;;;9.63;5.55;;;;;;;2.96;68.45;98382.91;6035096;23;20027;-78
2022/01/01 10:21:40;;;;;;;11.02;6.15;;;;;;;3.00;68.58;98383.75;5996583;23;20034;-80
2022/01/01 10:24:12;;;;;;;10.45;5.93;;;;;;;3.01;68.60;98380.31;5994045;23;20102;-79
2022/01/01 10:29:31;;;;;;;11.93;5.95;;;;;;;2.88;68.58;98353.75;6045507;23;20050;-78
2022/01/01 10:31:59;;;;;;;10.45;5.70;;;;;;;3.00;68.59;98369.16;6056973;23;20407;-80
2022/01/01 10:34:30;;;;;;;10.10;5.82;;;;;;;2.94;67.37;98369.19;6050251;23;20015;-77
2022/01/01 10:36:56;;;;;;;9.57;5.60;;;;;;;2.76;67.69;98349.50;6038397;23;20003;-77
2022/01/01 10:39:24;;;;;;;11.32;4.95;;;;;;;2.69;67.54;98329.78;6036758;23;20030;-77
2022/01/01 10:42:03;;;;;;;8.25;5.10;;;;;;;2.85;67.57;98374.31;6020811;23;20047;-78
2022/01/01 10:44:38;;;;;;;7.82;4.93;;;;;;;2.88;67.82;98376.91;6021097;23;20037;-79
2022/01/01 10:47:21;;;;;;;7.63;4.50;;;;;;;2.83;67.72;98374.34;6024268;23;20045;-80
2022/01/01 10:52:18;;;;;;;8.55;4.78;;;;;;;2.79;67.33;98382.91;6040611;23;20094;-79
2022/01/01 10:55:05;;;;;;;9.35;4.88;;;;;;;2.79;67.43;98377.75;6015429;23;20023;-81
2022/01/01 10:57:55;;;;;;;9.38;5.25;;;;;;;2.83;67.68;98383.75;6038932;23;20019;-78
2022/01/01 11:00:23;;;;;;;8.23;4.90;;;;;;;2.86;67.64;98376.03;6041956;23;20023;-80
2022/01/01 11:02:51;;;;;;;12.82;4.93;;;;;;;2.87;67.46;98382.88;6042001;23;20085;-78
2022/01/01 11:05:28;;;;;;;7.32;4.57;;;;;;;2.51;67.07;98326.38;6039807;23;20019;-79
2022/01/01 11:07:55;;;;;;;6.05;3.78;;;;;;;2.80;67.07;98378.59;6042849;23;20151;-77
2022/01/01 11:10:22;;;;;;;8.13;4.00;;;;;;;2.79;67.34;98376.88;6015792;23;20019;-79
2022/01/01 11:12:48;;;;;;;8.05;4.60;;;;;;;2.63;67.19;98356.34;6015280;23;20118;-82
2022/01/01 11:15:15;;;;;;;7.72;4.00;;;;;;;2.78;67.08;98372.59;6040898;23;20019;-79
2022/01/01 11:17:42;;;;;;;7.63;3.85;;;;;;;2.59;66.66;98359.75;6040206;23;20477;-80
2022/01/01 11:20:09;;;;;;;5.38;3.45;;;;;;;2.60;66.62;98363.19;6040748;23;20046;-79
2022/01/01 11:22:35;;;;;;;6.70;3.35;;;;;;;2.70;66.99;98388.88;6015925;23;20014;-79
2022/01/01 11:25:02;;;;;;;6.18;3.70;;;;;;;2.68;66.74;98388.03;6018306;23;20050;-78
2022/01/01 11:27:29;;;;;;;6.78;4.03;;;;;;;2.65;66.29;98389.75;6035303;23;19995;-79
2022/01/01 11:29:56;;;;;;;6.05;3.72;;;;;;;2.55;66.53;98371.75;6049368;23;20058;-80
2022/01/01 11:32:27;;;;;;;7.35;3.75;;;;;;;2.58;66.32;98383.72;6020779;23;20501;-80
2022/01/01 11:34:55;;;;;;;8.55;4.40;;;;;;;2.55;66.54;98391.44;6021781;23;20019;-79
2022/01/01 11:37:23;;;;;;;6.78;4.00;;;;;;;2.45;66.34;98376.88;6048725;23;20038;-78